sensor_id;sensor_type;location;lat;lon;timestamp;pressure;altitude;pressure_sealevel;temperature;humidity
10474;BME280;5284;50.446;7.904;2022-08-20T00:02:53;98357.78;;;20.94;95.09
10474;BME280;5284;50.446;7.904;2022-08-20T00:07:58;98357.09;;;20.86;97.78
10474;BME280;5284;50.446;7.904;2022-08-20T00:13:02;98361.44;;;20.80;98.44
10474;BME280;5284;50.446;7.904;2022-08-20T00:18:06;98360.53;;;20.73;99.75
10474;BME280;5284;50.446;7.904;2022-08-20T00:23:14;98364.69;;;20.69;99.86
10474;BME280;5284;50.446;7.904;2022-08-20T00:28:17;98369.47;;;20.67;98.98
10474;BME280;5284;50.446;7.904;2022-08-20T00:33:22;98378.22;;;20.63;97.88
10474;BME280;5284;50.446;7.904;2022-08-20T00:38:26;98372.16;;;20.61;97.19
10474;BME280;5284;50.446;7.904;2022-08-20T00:43:32;98370.03;;;20.56;97.36
10474;BME280;5284;50.446;7.904;2022-08-20T00:48:39;98369.56;;;20.53;100.00
10474;BME280;5284;50.446;7.904;2022-08-20T00:53:44;98379.13;;;20.49;100.00
10474;BME280;5284;50.446;7.904;2022-08-20T00:58:49;98370.16;;;20.48;100.00
10474;BME280;5284;50.446;7.904;2022-08-20T01:03:53;98367.22;;;20.43;100.00
10474;BME280;5284;50.446;7.904;2022-08-20T01:08:58;98367.41;;;20.42;100.00
10474;BME280;5284;50.446;7.904;2022-08-20T01:14:06;98371.31;;;20.39;100.00
10474;BME280;5284;50.446;7.904;2022-08-20T01:19:28;98369.41;;;20.33;100.00
10474;BME280;5284;50.446;7.904;2022-08-20T01:24:36;98373.16;;;20.32;100.00
10474;BME280;5284;50.446;7.904;2022-08-20T01:29:42;98376.66;;;20.26;100.00
10474;BME280;5284;50.446;7.904;2022-08-20T01:34:45;98379.16;;;20.28;100.00
10474;BME280;5284;50.446;7.904;2022-08-20T01:39:47;98381.41;;;20.24;100.00
10474;BME280;5284;50.446;7.904;2022-08-20T01:44:52;98372.00;;;20.20;100.00
10474;BME280;5284;50.446;7.904;2022-08-20T01:49:57;98374.25;;;20.17;100.00
10474;BME280;5284;50.446;7.904;2022-08-20T01:55:01;98374.25;;;20.17;100.00
10474;BME280;5284;50.446;7.904;2022-08-20T02:00:09;98373.81;;;20.13;100.00
10474;BME280;5284;50.446;7.904;2022-08-20T02:05:22;98376.06;;;20.10;100.00
10474;BME280;5284;50.446;7.904;2022-08-20T02:10:31;98380.66;;;20.10;100.00
10474;BME280;5284;50.446;7.904;2022-08-20T02:15:36;98382.34;;;20.11;100.00
10474;BME280;5284;50.446;7.904;2022-08-20T02:20:43;98376.06;;;20.10;100.00
10474;BME280;5284;50.446;7.904;2022-08-20T02:25:47;98376.28;;;20.09;100.00
10474;BME280;5284;50.446;7.904;2022-08-20T02:30:52;98378.72;;;20.04;100.00
10474;BME280;5284;50.446;7.904;2022-08-20T02:35:56;98377.88;;;20.03;100.00
10474;BME280;5284;50.446;7.904;2022-08-20T02:40:59;98379.34;;;20.06;100.00
10474;BME280;5284;50.446;7.904;2022-08-20T02:46:04;98377.50;;;20.06;100.00
10474;BME280;5284;50.446;7.904;2022-08-20T02:51:08;98387.69;;;20.04;100.00
10474;BME280;5284;50.446;7.904;2022-08-20T02:56:11;98388.31;;;20.06;100.00
10474;BME280;5284;50.446;7.904;2022-08-20T03:01:17;98391.22;;;20.05;100.00
10474;BME280;5284;50.446;7.904;2022-08-20T03:06:19;98386.84;;;20.04;100.00
10474;BME280;5284;50.446;7.904;2022-08-20T03:11:22;98373.28;;;20.04;100.00
10474;BME280;5284;50.446;7.904;2022-08-20T03:16:26;98381.41;;;20.04;100.00
10474;BME280;5284;50.446;7.904;2022-08-20T03:21:29;98374.97;;;20.05;100.00
10474;BME280;5284;50.446;7.904;2022-08-20T03:26:32;98380.94;;;20.00;100.00
10474;BME280;5284;50.446;7.904;2022-08-20T03:31:37;98389.84;;;19.94;100.00
10474;BME280;5284;50.446;7.904;2022-08-20T03:36:39;98387.41;;;19.99;100.00
10474;BME280;5284;50.446;7.904;2022-08-20T03:41:43;98378.38;;;19.92;100.00
10474;BME280;5284;50.446;7.904;2022-08-20T03:46:47;98396.47;;;19.92;100.00
10474;BME280;5284;50.446;7.904;2022-08-20T03:51:50;98402.75;;;19.92;100.00
10474;BME280;5284;50.446;7.904;2022-08-20T03:56:59;98403.47;;;19.86;100.00
10474;BME280;5284;50.446;7.904;2022-08-20T04:02:14;98399.94;;;19.86;100.00
10474;BME280;5284;50.446;7.904;2022-08-20T04:07:20;98399.94;;;19.86;100.00
10474;BME280;5284;50.446;7.904;2022-08-20T04:12:26;98400.78;;;19.86;100.00
10474;BME280;5284;50.446;7.904;2022-08-20T04:17:30;98405.53;;;19.84;100.00
10474;BME280;5284;50.446;7.904;2022-08-20T04:22:33;98403.88;;;19.83;100.00
10474;BME280;5284;50.446;7.904;2022-08-20T04:27:39;98408.19;;;19.78;100.00
10474;BME280;5284;50.446;7.904;2022-08-20T04:32:44;98414.19;;;19.73;100.00
10474;BME280;5284;50.446;7.904;2022-08-20T04:37:47;98421.66;;;19.71;100.00
10474;BME280;5284;50.446;7.904;2022-08-20T04:42:50;98413.44;;;19.65;100.00
10474;BME280;5284;50.446;7.904;2022-08-20T04:47:55;98405.31;;;19.65;100.00
10474;BME280;5284;50.446;7.904;2022-08-20T04:52:58;98405.16;;;19.66;100.00
10474;BME280;5284;50.446;7.904;2022-08-20T04:58:02;98414.72;;;19.69;100.00
10474;BME280;5284;50.446;7.904;2022-08-20T05:03:07;98411.22;;;19.68;100.00
10474;BME280;5284;50.446;7.904;2022-08-20T05:08:10;98416.41;;;19.70;100.00
10474;BME280;5284;50.446;7.904;2022-08-20T05:13:20;98419.75;;;19.72;100.00
10474;BME280;5284;50.446;7.904;2022-08-20T05:18:29;98428.34;;;19.75;100.00
10474;BME280;5284;50.446;7.904;2022-08-20T05:23:35;98425.38;;;19.70;100.00
10474;BME280;5284;50.446;7.904;2022-08-20T05:28:40;98437.38;;;19.82;100.00
10474;BME280;5284;50.446;7.904;2022-08-20T05:34:01;98431.84;;;19.90;100.00
10474;BME280;5284;50.446;7.904;2022-08-20T05:39:04;98438.09;;;20.05;100.00
10474;BME280;5284;50.446;7.904;2022-08-20T05:44:09;98437.34;;;20.11;100.00
10474;BME280;5284;50.446;7.904;2022-08-20T05:49:17;98448.22;;;20.38;100.00
10474;BME280;5284;50.446;7.904;2022-08-20T05:54:21;98448.53;;;20.50;100.00
10474;BME280;5284;50.446;7.904;2022-08-20T05:59:24;98447.00;;;20.62;100.00
10474;BME280;5284;50.446;7.904;2022-08-20T06:04:29;98443.34;;;20.76;100.00
10474;BME280;5284;50.446;7.904;2022-08-20T06:09:32;98449.88;;;20.81;100.00
10474;BME280;5284;50.446;7.904;2022-08-20T06:14:36;98456.06;;;20.96;99.95
10474;BME280;5284;50.446;7.904;2022-08-20T06:19:42;98461.06;;;20.93;100.00
10474;BME280;5284;50.446;7.904;2022-08-20T06:24:45;98461.69;;;20.95;100.00
10474;BME280;5284;50.446;7.904;2022-08-20T06:29:49;98459.41;;;20.98;100.00
10474;BME280;5284;50.446;7.904;2022-08-20T06:34:53;98457.03;;;20.89;100.00
10474;BME280;5284;50.446;7.904;2022-08-20T06:40:00;98457.84;;;20.83;100.00
10474;BME280;5284;50.446;7.904;2022-08-20T06:45:05;98456.91;;;20.76;100.00
10474;BME280;5284;50.446;7.904;2022-08-20T06:50:12;98462.66;;;20.66;100.00
10474;BME280;5284;50.446;7.904;2022-08-20T06:55:16;98463.78;;;20.51;100.00
10474;BME280;5284;50.446;7.904;2022-08-20T07:00:18;98457.78;;;20.76;100.00
10474;BME280;5284;50.446;7.904;2022-08-20T07:05:23;98462.16;;;20.77;100.00
10474;BME280;5284;50.446;7.904;2022-08-20T07:10:28;98461.09;;;20.99;99.35
10474;BME280;5284;50.446;7.904;2022-08-20T07:15:31;98464.66;;;21.00;100.00
10474;BME280;5284;50.446;7.904;2022-08-20T07:20:36;98470.75;;;21.08;100.00
10474;BME280;5284;50.446;7.904;2022-08-20T07:25:42;98477.44;;;21.40;100.00
10474;BME280;5284;50.446;7.904;2022-08-20T07:30:46;98480.56;;;21.77;96.75
10474;BME280;5284;50.446;7.904;2022-08-20T07:36:17;98472.06;;;21.53;93.91
10474;BME280;5284;50.446;7.904;2022-08-20T07:41:20;98477.22;;;21.41;94.67
10474;BME280;5284;50.446;7.904;2022-08-20T07:46:23;98489.22;;;21.26;96.43
10474;BME280;5284;50.446;7.904;2022-08-20T07:51:34;98488.88;;;21.29;98.20
10474;BME280;5284;50.446;7.904;2022-08-20T07:56:37;98490.19;;;21.12;98.96
10474;BME280;5284;50.446;7.904;2022-08-20T08:01:40;98490.28;;;21.59;96.17
10474;BME280;5284;50.446;7.904;2022-08-20T08:06:45;98493.78;;;21.86;91.81
10474;BME280;5284;50.446;7.904;2022-08-20T08:11:48;98497.78;;;21.90;91.20
10474;BME280;5284;50.446;7.904;2022-08-20T08:16:53;98492.81;;;22.07;90.53
10474;BME280;5284;50.446;7.904;2022-08-20T08:21:59;98494.25;;;22.63;86.45
10474;BME280;5284;50.446;7.904;2022-08-20T08:27:02;98491.34;;;22.71;84.77
10474;BME280;5284;50.446;7.904;2022-08-20T08:32:06;98489.88;;;22.02;88.55
10474;BME280;5284;50.446;7.904;2022-08-20T08:37:10;98492.53;;;21.82;88.42
10474;BME280;5284;50.446;7.904;2022-08-20T08:42:23;98502.41;;;22.56;85.72
10474;BME280;5284;50.446;7.904;2022-08-20T08:47:30;98494.84;;;23.62;79.86
10474;BME280;5284;50.446;7.904;2022-08-20T08:52:38;98494.00;;;23.81;76.44
10474;BME280;5284;50.446;7.904;2022-08-20T08:57:41;98496.47;;;23.95;75.27
10474;BME280;5284;50.446;7.904;2022-08-20T09:02:53;98491.00;;;24.77;71.82
10474;BME280;5284;50.446;7.904;2022-08-20T09:08:00;98500.13;;;24.20;71.60
10474;BME280;5284;50.446;7.904;2022-08-20T09:13:04;98496.53;;;24.64;69.04
10474;BME280;5284;50.446;7.904;2022-08-20T09:18:07;98498.72;;;24.49;68.74
10474;BME280;5284;50.446;7.904;2022-08-20T09:23:11;98489.63;;;24.68;68.06
10474;BME280;5284;50.446;7.904;2022-08-20T09:28:14;98491.84;;;24.77;68.31
10474;BME280;5284;50.446;7.904;2022-08-20T09:33:17;98491.50;;;25.65;66.19
10474;BME280;5284;50.446;7.904;2022-08-20T09:38:21;98494.78;;;25.73;65.22
10474;BME280;5284;50.446;7.904;2022-08-20T09:43:24;98487.59;;;25.36;65.13
10474;BME280;5284;50.446;7.904;2022-08-20T09:48:26;98483.41;;;25.34;65.49
10474;BME280;5284;50.446;7.904;2022-08-20T09:53:34;98489.44;;;26.50;62.76
10474;BME280;5284;50.446;7.904;2022-08-20T09:58:43;98491.69;;;26.53;60.85
10474;BME280;5284;50.446;7.904;2022-08-20T10:03:49;98489.34;;;26.57;60.98
10474;BME280;5284;50.446;7.904;2022-08-20T10:08:53;98494.22;;;25.65;62.11
10474;BME280;5284;50.446;7.904;2022-08-20T10:13:56;98497.97;;;25.46;62.63
10474;BME280;5284;50.446;7.904;2022-08-20T10:18:59;98493.88;;;25.12;63.27
10474;BME280;5284;50.446;7.904;2022-08-20T10:24:03;98496.47;;;26.58;59.97
10474;BME280;5284;50.446;7.904;2022-08-20T10:29:06;98490.16;;;26.98;57.55
10474;BME280;5284;50.446;7.904;2022-08-20T10:34:09;98495.75;;;26.15;59.35
10474;BME280;5284;50.446;7.904;2022-08-20T10:39:14;98484.50;;;25.69;59.50
10474;BME280;5284;50.446;7.904;2022-08-20T10:44:16;98491.81;;;26.58;58.49
10474;BME280;5284;50.446;7.904;2022-08-20T10:49:19;98491.78;;;26.87;52.53
10474;BME280;5284;50.446;7.904;2022-08-20T10:54:23;98485.63;;;26.51;53.18
10474;BME280;5284;50.446;7.904;2022-08-20T10:59:26;98481.03;;;27.15;53.75
10474;BME280;5284;50.446;7.904;2022-08-20T11:04:29;98482.53;;;26.88;53.97
10474;BME280;5284;50.446;7.904;2022-08-20T11:09:33;98482.13;;;27.37;53.57
10474;BME280;5284;50.446;7.904;2022-08-20T11:14:36;98483.31;;;26.01;54.69
10474;BME280;5284;50.446;7.904;2022-08-20T11:19:40;98484.44;;;25.75;54.51
10474;BME280;5284;50.446;7.904;2022-08-20T11:24:45;98492.16;;;26.50;52.82
10474;BME280;5284;50.446;7.904;2022-08-20T11:29:48;98485.34;;;27.57;50.61
10474;BME280;5284;50.446;7.904;2022-08-20T11:34:51;98500.13;;;27.91;49.72
10474;BME280;5284;50.446;7.904;2022-08-20T11:39:55;98490.97;;;28.36;49.40
10474;BME280;5284;50.446;7.904;2022-08-20T11:44:58;98497.16;;;29.32;48.80
10474;BME280;5284;50.446;7.904;2022-08-20T11:50:04;98490.84;;;28.87;47.36
10474;BME280;5284;50.446;7.904;2022-08-20T11:55:11;98506.06;;;29.72;46.23
10474;BME280;5284;50.446;7.904;2022-08-20T12:00:18;98500.31;;;30.11;44.31
10474;BME280;5284;50.446;7.904;2022-08-20T12:05:32;98490.72;;;30.35;43.04
10474;BME280;5284;50.446;7.904;2022-08-20T12:10:37;98478.25;;;28.74;44.09
10474;BME280;5284;50.446;7.904;2022-08-20T12:15:40;98493.41;;;30.30;41.89
10474;BME280;5284;50.446;7.904;2022-08-20T12:20:44;98489.00;;;29.91;41.11
10474;BME280;5284;50.446;7.904;2022-08-20T12:25:52;98483.47;;;31.30;40.75
10474;BME280;5284;50.446;7.904;2022-08-20T12:30:55;98473.66;;;32.26;39.60
10474;BME280;5284;50.446;7.904;2022-08-20T12:35:58;98480.78;;;33.04;38.31
10474;BME280;5284;50.446;7.904;2022-08-20T12:41:02;98481.00;;;32.82;37.55
10474;BME280;5284;50.446;7.904;2022-08-20T12:46:05;98479.38;;;34.01;37.21
10474;BME280;5284;50.446;7.904;2022-08-20T12:51:08;98494.59;;;34.08;35.02
10474;BME280;5284;50.446;7.904;2022-08-20T12:56:12;98483.94;;;34.98;35.40
10474;BME280;5284;50.446;7.904;2022-08-20T13:01:15;98494.97;;;36.56;34.63
10474;BME280;5284;50.446;7.904;2022-08-20T13:06:18;98497.88;;;36.41;32.67
10474;BME280;5284;50.446;7.904;2022-08-20T13:11:24;98502.22;;;36.00;33.42
10474;BME280;5284;50.446;7.904;2022-08-20T13:16:27;98503.44;;;36.17;33.09
10474;BME280;5284;50.446;7.904;2022-08-20T13:21:30;98511.09;;;37.14;31.11
10474;BME280;5284;50.446;7.904;2022-08-20T13:26:34;98510.47;;;37.54;31.18
10474;BME280;5284;50.446;7.904;2022-08-20T13:31:39;98513.50;;;37.89;31.66
10474;BME280;5284;50.446;7.904;2022-08-20T13:36:42;98504.69;;;38.41;31.21
10474;BME280;5284;50.446;7.904;2022-08-20T15:04:42;98535.88;;;43.08;24.78
10474;BME280;5284;50.446;7.904;2022-08-20T15:09:53;98528.09;;;44.64;24.26
10474;BME280;5284;50.446;7.904;2022-08-20T15:14:56;98537.13;;;44.57;24.12
10474;BME280;5284;50.446;7.904;2022-08-20T15:20:17;98547.13;;;46.05;23.84
10474;BME280;5284;50.446;7.904;2022-08-20T15:25:23;98547.66;;;45.95;24.13
10474;BME280;5284;50.446;7.904;2022-08-20T15:30:27;98540.59;;;45.62;24.25
10474;BME280;5284;50.446;7.904;2022-08-20T15:35:33;98544.22;;;45.11;24.03
10474;BME280;5284;50.446;7.904;2022-08-20T15:40:36;98540.66;;;46.48;23.91
10474;BME280;5284;50.446;7.904;2022-08-20T15:45:38;98534.06;;;45.73;23.12
10474;BME280;5284;50.446;7.904;2022-08-20T15:50:58;98537.81;;;45.89;23.32
10474;BME280;5284;50.446;7.904;2022-08-20T15:56:12;98541.84;;;44.65;24.36
10474;BME280;5284;50.446;7.904;2022-08-20T16:01:23;98519.53;;;40.74;27.56
10474;BME280;5284;50.446;7.904;2022-08-20T16:06:32;98518.81;;;41.08;27.18
10474;BME280;5284;50.446;7.904;2022-08-20T16:11:44;98520.09;;;40.07;27.96
10474;BME280;5284;50.446;7.904;2022-08-20T16:16:51;98515.22;;;38.44;29.71
10474;BME280;5284;50.446;7.904;2022-08-20T16:22:03;98522.22;;;40.10;27.85
10474;BME280;5284;50.446;7.904;2022-08-20T16:27:13;98518.53;;;38.59;29.53
10474;BME280;5284;50.446;7.904;2022-08-20T16:32:33;98508.41;;;36.20;31.30
10474;BME280;5284;50.446;7.904;2022-08-20T16:37:44;98520.38;;;35.92;31.13
10474;BME280;5284;50.446;7.904;2022-08-20T16:42:50;98515.16;;;34.71;32.46
10474;BME280;5284;50.446;7.904;2022-08-20T16:47:58;98516.81;;;33.38;33.83
10474;BME280;5284;50.446;7.904;2022-08-20T16:53:04;98519.53;;;34.03;33.08
10474;BME280;5284;50.446;7.904;2022-08-20T16:58:06;98513.13;;;32.93;34.49
10474;BME280;5284;50.446;7.904;2022-08-20T17:03:20;98521.56;;;31.06;36.44
10474;BME280;5284;50.446;7.904;2022-08-20T17:08:48;98515.88;;;29.84;38.30
10474;BME280;5284;50.446;7.904;2022-08-20T17:14:05;98511.25;;;29.52;38.97
10474;BME280;5284;50.446;7.904;2022-08-20T17:19:16;98518.44;;;29.08;39.49
10474;BME280;5284;50.446;7.904;2022-08-20T17:24:24;98522.56;;;29.39;39.42
10474;BME280;5284;50.446;7.904;2022-08-20T17:29:31;98519.50;;;28.23;39.65
10474;BME280;5284;50.446;7.904;2022-08-20T17:34:42;98519.25;;;26.69;42.86
10474;BME280;5284;50.446;7.904;2022-08-20T17:39:48;98520.13;;;25.80;44.05
10474;BME280;5284;50.446;7.904;2022-08-20T17:44:54;98518.34;;;25.25;45.25
10474;BME280;5284;50.446;7.904;2022-08-20T17:50:00;98521.94;;;24.95;45.26
10474;BME280;5284;50.446;7.904;2022-08-20T17:55:07;98526.97;;;24.67;45.62
10474;BME280;5284;50.446;7.904;2022-08-20T18:00:12;98525.19;;;24.42;46.33
10474;BME280;5284;50.446;7.904;2022-08-20T18:05:18;98528.47;;;24.13;46.79
10474;BME280;5284;50.446;7.904;2022-08-20T18:10:25;98543.47;;;23.84;46.94
10474;BME280;5284;50.446;7.904;2022-08-20T18:15:30;98537.84;;;23.53;47.86
10474;BME280;5284;50.446;7.904;2022-08-20T18:20:44;98546.03;;;23.28;48.27
10474;BME280;5284;50.446;7.904;2022-08-20T18:25:54;98544.09;;;23.09;48.55
10474;BME280;5284;50.446;7.904;2022-08-20T18:31:01;98549.53;;;22.89;49.00
10474;BME280;5284;50.446;7.904;2022-08-20T18:36:11;98558.94;;;22.67;49.42
10474;BME280;5284;50.446;7.904;2022-08-20T18:41:27;98552.81;;;22.46;49.92
10474;BME280;5284;50.446;7.904;2022-08-20T18:46:31;98559.16;;;22.25;50.69
10474;BME280;5284;50.446;7.904;2022-08-20T18:51:38;98561.38;;;22.09;51.21
10474;BME280;5284;50.446;7.904;2022-08-20T18:56:43;98566.72;;;21.89;50.54
10474;BME280;5284;50.446;7.904;2022-08-20T19:01:47;98568.91;;;21.73;51.16
10474;BME280;5284;50.446;7.904;2022-08-20T19:06:54;98576.50;;;21.57;51.26
10474;BME280;5284;50.446;7.904;2022-08-20T19:12:13;98574.94;;;21.41;51.76
10474;BME280;5284;50.446;7.904;2022-08-20T19:17:30;98580.03;;;21.23;51.91
10474;BME280;5284;50.446;7.904;2022-08-20T19:22:40;98580.94;;;21.09;52.81
10474;BME280;5284;50.446;7.904;2022-08-20T19:27:45;98572.91;;;20.95;53.08
10474;BME280;5284;50.446;7.904;2022-08-20T19:32:50;98572.56;;;20.83;53.85
10474;BME280;5284;50.446;7.904;2022-08-20T19:37:53;98583.06;;;20.72;53.99
10474;BME280;5284;50.446;7.904;2022-08-20T19:43:01;98578.31;;;20.59;54.24
10474;BME280;5284;50.446;7.904;2022-08-20T19:48:23;98586.97;;;20.48;54.87
10474;BME280;5284;50.446;7.904;2022-08-20T19:53:30;98585.63;;;20.23;57.38
10474;BME280;5284;50.446;7.904;2022-08-20T19:58:35;98581.06;;;19.81;59.92
10474;BME280;5284;50.446;7.904;2022-08-20T20:03:38;98583.13;;;19.64;61.09
10474;BME280;5284;50.446;7.904;2022-08-20T20:08:44;98581.97;;;19.44;62.23
10474;BME280;5284;50.446;7.904;2022-08-20T20:13:53;98586.69;;;19.28;63.28
10474;BME280;5284;50.446;7.904;2022-08-20T20:18:56;98590.88;;;19.16;62.61
10474;BME280;5284;50.446;7.904;2022-08-20T20:24:22;98577.81;;;18.97;61.43
10474;BME280;5284;50.446;7.904;2022-08-20T20:29:33;98578.69;;;18.75;61.56
10474;BME280;5284;50.446;7.904;2022-08-20T20:34:37;98572.06;;;18.55;63.13
10474;BME280;5284;50.446;7.904;2022-08-20T20:40:00;98571.56;;;18.29;64.07
10474;BME280;5284;50.446;7.904;2022-08-20T20:45:17;98579.06;;;18.11;67.39
10474;BME280;5284;50.446;7.904;2022-08-20T20:50:30;98587.88;;;18.05;66.22
10474;BME280;5284;50.446;7.904;2022-08-20T20:55:36;98577.28;;;17.96;65.47
10474;BME280;5284;50.446;7.904;2022-08-20T21:00:40;98579.31;;;17.86;65.21
10474;BME280;5284;50.446;7.904;2022-08-20T21:05:43;98577.00;;;17.75;65.20
10474;BME280;5284;50.446;7.904;2022-08-20T21:10:46;98582.47;;;17.59;66.17
10474;BME280;5284;50.446;7.904;2022-08-20T21:15:51;98582.84;;;17.40;68.10
10474;BME280;5284;50.446;7.904;2022-08-20T21:20:54;98581.84;;;17.17;72.93
10474;BME280;5284;50.446;7.904;2022-08-20T21:25:57;98584.53;;;17.09;74.24
10474;BME280;5284;50.446;7.904;2022-08-20T21:31:02;98577.13;;;17.11;69.46
10474;BME280;5284;50.446;7.904;2022-08-20T21:36:05;98576.63;;;16.99;69.46
10474;BME280;5284;50.446;7.904;2022-08-20T21:41:08;98583.72;;;16.85;70.30
10474;BME280;5284;50.446;7.904;2022-08-20T21:46:13;98586.75;;;16.74;71.24
10474;BME280;5284;50.446;7.904;2022-08-20T21:51:15;98585.03;;;16.65;70.14
10474;BME280;5284;50.446;7.904;2022-08-20T21:56:18;98589.09;;;16.53;71.53
10474;BME280;5284;50.446;7.904;2022-08-20T22:01:24;98586.53;;;16.43;72.34
10474;BME280;5284;50.446;7.904;2022-08-20T22:06:27;98584.47;;;16.29;74.41
10474;BME280;5284;50.446;7.904;2022-08-20T22:11:30;98595.34;;;16.12;78.03
10474;BME280;5284;50.446;7.904;2022-08-20T22:16:35;98593.00;;;16.17;75.24
10474;BME280;5284;50.446;7.904;2022-08-20T22:21:42;98598.19;;;16.10;73.23
10474;BME280;5284;50.446;7.904;2022-08-20T22:26:45;98584.34;;;15.89;77.14
10474;BME280;5284;50.446;7.904;2022-08-20T22:31:50;98597.63;;;15.91;75.97
10474;BME280;5284;50.446;7.904;2022-08-20T22:36:53;98595.13;;;15.89;74.92
10474;BME280;5284;50.446;7.904;2022-08-20T22:41:58;98596.56;;;15.76;75.65
10474;BME280;5284;50.446;7.904;2022-08-20T22:47:05;98595.88;;;15.74;74.57
10474;BME280;5284;50.446;7.904;2022-08-20T22:52:08;98593.06;;;15.50;78.98
10474;BME280;5284;50.446;7.904;2022-08-20T22:57:12;98597.19;;;15.36;82.57
10474;BME280;5284;50.446;7.904;2022-08-20T23:02:22;98597.03;;;15.38;79.93
10474;BME280;5284;50.446;7.904;2022-08-20T23:07:25;98599.88;;;15.36;80.15
10474;BME280;5284;50.446;7.904;2022-08-20T23:12:28;98596.06;;;15.22;81.78
10474;BME280;5284;50.446;7.904;2022-08-20T23:17:33;98594.84;;;15.16;83.07
10474;BME280;5284;50.446;7.904;2022-08-20T23:22:38;98592.41;;;15.05;86.65
10474;BME280;5284;50.446;7.904;2022-08-20T23:27:42;98599.88;;;14.94;88.21
10474;BME280;5284;50.446;7.904;2022-08-20T23:32:47;98595.50;;;14.93;82.61
10474;BME280;5284;50.446;7.904;2022-08-20T23:37:53;98587.91;;;14.88;81.16
10474;BME280;5284;50.446;7.904;2022-08-20T23:42:57;98591.38;;;14.81;80.15
10474;BME280;5284;50.446;7.904;2022-08-20T23:48:02;98590.78;;;14.69;83.20
10474;BME280;5284;50.446;7.904;2022-08-20T23:53:05;98589.16;;;14.59;89.18
10474;BME280;5284;50.446;7.904;2022-08-20T23:58:08;98584.25;;;14.54;89.17
